createdAt,value
2018-05-17T00:03:20.135Z,14.44
2018-05-17T00:08:22.708Z,14.37
2018-05-17T00:13:25.238Z,14.32
2018-05-17T00:18:27.775Z,14.31
2018-05-17T00:23:30.314Z,14.21
2018-05-17T00:28:32.833Z,14.14
2018-05-17T00:33:35.361Z,14.11
2018-05-17T00:38:37.812Z,14.02
2018-05-17T00:43:40.325Z,13.96
2018-05-17T00:48:42.832Z,13.91
2018-05-17T00:53:45.459Z,13.79
2018-05-17T00:58:48.104Z,13.88
2018-05-17T01:03:50.823Z,13.81
2018-05-17T01:08:53.415Z,13.77
2018-05-17T01:13:55.955Z,13.65
2018-05-17T01:18:58.488Z,13.58
2018-05-17T01:24:01.037Z,13.50
2018-05-17T01:29:03.558Z,13.31
2018-05-17T01:34:06.065Z,13.18
2018-05-17T01:39:08.564Z,13.07
2018-05-17T01:44:11.084Z,12.91
2018-05-17T01:49:13.591Z,12.79
2018-05-17T01:54:16.557Z,12.68
2018-05-17T01:59:19.147Z,12.72
2018-05-17T02:04:21.683Z,12.63
2018-05-17T02:09:24.272Z,12.58
2018-05-17T02:14:26.846Z,12.63
2018-05-17T02:19:29.331Z,12.55
2018-05-17T02:24:31.872Z,12.52
2018-05-17T02:29:34.366Z,12.47
2018-05-17T02:34:36.917Z,12.38
2018-05-17T02:39:39.430Z,12.32
2018-05-17T02:44:42.050Z,12.34
2018-05-17T02:49:44.588Z,12.30
2018-05-17T02:54:47.241Z,12.29
2018-05-17T02:59:49.898Z,12.36
2018-05-17T03:04:52.417Z,12.35
2018-05-17T03:09:55.070Z,12.31
2018-05-17T03:14:58.506Z,12.32
2018-05-17T03:20:00.992Z,12.34
2018-05-17T03:25:03.541Z,12.39
2018-05-17T03:30:06.106Z,12.56
2018-05-17T03:35:08.580Z,12.59
2018-05-17T03:40:11.082Z,12.58
2018-05-17T03:45:13.626Z,12.62
2018-05-17T03:50:16.197Z,12.56
2018-05-17T03:55:18.837Z,12.63
2018-05-17T04:00:21.800Z,12.63
2018-05-17T04:05:36.011Z,12.63
2018-05-17T04:10:38.740Z,12.67
2018-05-17T04:15:41.267Z,12.74
2018-05-17T04:20:44.786Z,12.82
2018-05-17T04:25:47.363Z,12.96
2018-05-17T04:30:49.945Z,14.31
2018-05-17T04:35:53.122Z,15.19
2018-05-17T04:40:55.744Z,15.49
2018-05-17T04:45:58.249Z,16.06
2018-05-17T04:51:00.796Z,16.83
2018-05-17T04:56:03.311Z,18.01
2018-05-17T05:01:05.819Z,20.23
2018-05-17T05:06:09.301Z,21.05
2018-05-17T05:11:11.869Z,21.26
2018-05-17T05:16:14.356Z,23.50
2018-05-17T05:21:16.898Z,21.48
2018-05-17T05:26:19.482Z,22.81
2018-05-17T05:31:22.222Z,23.00
2018-05-17T05:36:24.732Z,20.62
2018-05-17T05:41:27.230Z,20.77
2018-05-17T05:46:29.725Z,19.82
2018-05-17T05:51:32.630Z,20.97
2018-05-17T05:56:35.353Z,21.79
2018-05-17T06:01:37.974Z,22.88
2018-05-17T06:06:40.463Z,23.20
2018-05-17T06:11:42.954Z,22.83
2018-05-17T06:16:45.532Z,18.10
2018-05-17T06:21:48.140Z,17.91
2018-05-17T06:26:50.690Z,20.86
2018-05-17T06:31:53.255Z,20.93
2018-05-17T06:36:56.127Z,22.32
2018-05-17T06:41:58.785Z,23.80
2018-05-17T06:47:01.375Z,25.19
2018-05-17T06:52:04.248Z,25.24
2018-05-17T06:57:06.752Z,24.34
2018-05-17T07:02:09.270Z,24.30
2018-05-17T07:07:11.826Z,24.27
2018-05-17T07:12:14.356Z,24.08
2018-05-17T07:17:16.966Z,23.36
2018-05-17T07:22:19.487Z,21.77
2018-05-17T07:27:21.991Z,18.26
2018-05-17T07:32:24.600Z,18.04
2018-05-17T07:37:31.363Z,20.67
2018-05-17T07:42:33.851Z,21.47
2018-05-17T07:47:36.345Z,20.69
2018-05-17T07:52:38.905Z,24.77
2018-05-17T07:57:41.442Z,24.02
2018-05-17T08:02:43.942Z,22.54
2018-05-17T08:07:46.482Z,22.53
2018-05-17T08:12:49.014Z,21.85
2018-05-17T08:17:51.671Z,22.58
2018-05-17T08:22:54.206Z,22.48
2018-05-17T08:27:56.740Z,22.39
2018-05-17T08:32:59.274Z,21.10
2018-05-17T08:38:01.900Z,20.22
2018-05-17T08:43:04.387Z,21.77
2018-05-17T08:48:08.442Z,21.13
2018-05-17T08:53:10.965Z,21.04
2018-05-17T08:58:13.447Z,23.77
2018-05-17T09:03:17.026Z,21.98
2018-05-17T09:08:19.827Z,20.54
2018-05-17T09:13:22.393Z,20.46
2018-05-17T09:18:25.409Z,21.10
2018-05-17T09:23:27.915Z,23.15
2018-05-17T09:28:30.404Z,23.76
2018-05-17T09:33:32.964Z,24.44
2018-05-17T09:38:35.473Z,22.94
2018-05-17T09:43:37.982Z,22.30
2018-05-17T09:48:40.480Z,22.80
2018-05-17T09:53:43.026Z,22.34
2018-05-17T09:58:45.543Z,24.28
2018-05-17T10:03:48.077Z,23.84
2018-05-17T10:08:50.596Z,22.16
2018-05-17T10:13:53.148Z,20.91
2018-05-17T10:18:55.644Z,21.47
2018-05-17T10:23:58.166Z,22.10
2018-05-17T10:29:00.654Z,23.18
2018-05-17T10:34:03.151Z,23.27
2018-05-17T10:39:05.650Z,21.70
2018-05-17T10:44:08.184Z,21.47
2018-05-17T10:49:10.714Z,22.64
2018-05-17T10:54:13.392Z,22.94
2018-05-17T10:59:15.963Z,24.00
2018-05-17T11:04:18.579Z,23.71
2018-05-17T11:09:21.139Z,23.79
2018-05-17T11:14:23.649Z,22.48
2018-05-17T11:19:26.141Z,21.56
2018-05-17T11:24:28.626Z,22.61
2018-05-17T11:29:31.120Z,22.97
2018-05-17T11:34:33.621Z,23.43
2018-05-17T11:39:36.110Z,22.46
2018-05-17T11:44:38.611Z,22.92
2018-05-17T11:49:41.119Z,22.72
2018-05-17T11:54:43.595Z,23.68
2018-05-17T11:59:46.320Z,23.03
2018-05-17T12:04:48.875Z,23.20
2018-05-17T12:09:51.566Z,23.92
2018-05-17T12:14:54.082Z,22.51
2018-05-17T12:19:56.825Z,23.19
2018-05-17T12:24:59.399Z,22.68
2018-05-17T12:30:02.779Z,23.23
2018-05-17T12:35:05.251Z,23.01
2018-05-17T12:40:07.770Z,23.91
2018-05-17T12:45:10.265Z,23.54
2018-05-17T12:50:12.786Z,23.64
2018-05-17T12:55:15.315Z,23.34
2018-05-17T13:00:17.852Z,23.85
2018-05-17T13:05:24.073Z,23.37
2018-05-17T13:10:26.651Z,23.61
2018-05-17T13:15:29.182Z,24.10
2018-05-17T13:20:32.635Z,23.14
2018-05-17T13:25:35.142Z,22.93
2018-05-17T13:30:37.616Z,23.14
2018-05-17T13:35:40.233Z,23.34
2018-05-17T13:40:42.732Z,23.05
2018-05-17T13:45:45.221Z,23.14
2018-05-17T13:50:47.841Z,23.23
2018-05-17T13:55:50.345Z,23.10
2018-05-17T14:00:52.883Z,23.81
2018-05-17T14:05:55.489Z,23.67
2018-05-17T14:10:58.083Z,23.60
2018-05-17T14:16:00.570Z,22.98
2018-05-17T14:21:03.074Z,22.94
2018-05-17T14:26:05.575Z,23.46
2018-05-17T14:31:08.055Z,23.64
2018-05-17T14:36:10.573Z,23.47
2018-05-17T14:41:13.080Z,23.16
2018-05-17T14:46:15.672Z,23.46
2018-05-17T14:51:18.244Z,24.24
2018-05-17T14:56:20.980Z,23.70
2018-05-17T15:01:23.491Z,23.04
2018-05-17T15:06:26.121Z,24.21
2018-05-17T15:11:28.608Z,24.95
2018-05-17T15:16:31.146Z,24.11
2018-05-17T15:21:35.975Z,23.66
2018-05-17T15:26:38.475Z,24.12
2018-05-17T15:31:41.013Z,23.93
2018-05-17T15:36:43.582Z,22.80
2018-05-17T15:41:46.086Z,22.91
2018-05-17T15:46:48.860Z,22.27
2018-05-17T15:51:51.400Z,22.42
2018-05-17T15:56:53.954Z,22.88
2018-05-17T16:01:57.330Z,23.26
2018-05-17T16:06:59.865Z,22.52
2018-05-17T16:12:02.369Z,22.73
2018-05-17T16:17:04.952Z,22.75
2018-05-17T16:22:07.437Z,22.40
2018-05-17T16:27:10.010Z,22.91
2018-05-17T16:32:12.523Z,22.15
2018-05-17T16:37:15.107Z,22.40
2018-05-17T16:42:17.754Z,22.07
2018-05-17T16:47:20.261Z,21.78
2018-05-17T16:52:22.998Z,21.36
2018-05-17T16:57:25.533Z,21.53
2018-05-17T17:02:28.155Z,21.58
2018-05-17T17:07:30.735Z,21.52
2018-05-17T17:12:33.329Z,22.04
2018-05-17T17:17:35.868Z,21.82
2018-05-17T17:22:38.373Z,21.94
2018-05-17T17:27:40.898Z,21.41
2018-05-17T17:32:43.405Z,21.82
2018-05-17T17:37:45.903Z,21.67
2018-05-17T17:42:48.414Z,21.37
2018-05-17T17:47:50.935Z,20.66
2018-05-17T17:52:53.769Z,20.03
2018-05-17T17:57:57.685Z,19.73
2018-05-17T18:03:00.605Z,19.50
2018-05-17T18:08:03.314Z,19.58
2018-05-17T18:13:05.964Z,19.29
2018-05-17T18:18:08.538Z,19.15
2018-05-17T18:23:12.116Z,18.91
2018-05-17T18:28:14.645Z,18.85
2018-05-17T18:33:17.222Z,18.68
2018-05-17T18:38:19.840Z,18.58
2018-05-17T18:43:22.442Z,18.39
2018-05-17T18:48:25.101Z,18.21
2018-05-17T18:53:27.665Z,18.13
2018-05-17T18:58:30.196Z,18.02
2018-05-17T19:03:32.723Z,17.82
2018-05-17T19:08:35.346Z,17.75
2018-05-17T19:13:37.775Z,17.69
2018-05-17T19:18:40.264Z,17.64
2018-05-17T19:23:42.824Z,17.64
2018-05-17T19:28:45.329Z,17.48
2018-05-17T19:33:47.864Z,17.32
2018-05-17T19:38:50.439Z,17.21
2018-05-17T19:43:52.943Z,17.03
2018-05-17T19:48:55.488Z,16.92
2018-05-17T19:53:58.151Z,16.75
2018-05-17T19:59:01.586Z,16.69
2018-05-17T20:04:04.233Z,16.48
2018-05-17T20:09:07.372Z,16.41
2018-05-17T20:14:10.144Z,16.13
2018-05-17T20:19:13.201Z,15.96
2018-05-17T20:24:15.768Z,15.86
2018-05-17T20:29:18.366Z,15.56
2018-05-17T20:34:20.763Z,15.42
2018-05-17T20:39:23.915Z,15.29
2018-05-17T20:44:26.933Z,15.12
2018-05-17T20:49:34.251Z,14.99
2018-05-17T20:54:38.205Z,14.84
2018-05-17T20:59:42.507Z,14.83
2018-05-17T21:04:45.006Z,14.52
2018-05-17T21:09:47.527Z,14.37
2018-05-17T21:14:56.453Z,14.17
2018-05-17T21:20:01.827Z,13.98
2018-05-17T21:25:04.683Z,13.88
2018-05-17T21:30:07.219Z,13.61
2018-05-17T21:35:09.739Z,13.49
2018-05-17T21:40:12.243Z,13.36
2018-05-17T21:45:14.728Z,13.17
2018-05-17T21:50:19.821Z,13.12
2018-05-17T21:55:22.463Z,13.00
2018-05-17T22:00:25.069Z,12.89
2018-05-17T22:05:27.684Z,12.78
2018-05-17T22:10:30.521Z,12.66
2018-05-17T22:15:33.044Z,12.54
2018-05-17T22:20:35.577Z,12.40
2018-05-17T22:25:38.070Z,12.41
2018-05-17T22:30:40.722Z,12.33
2018-05-17T22:35:43.275Z,12.22
2018-05-17T22:40:46.328Z,12.10
2018-05-17T22:45:48.810Z,12.08
2018-05-17T22:50:51.305Z,11.98
2018-05-17T22:55:53.829Z,11.87
2018-05-17T23:00:56.437Z,11.82
2018-05-17T23:05:59.015Z,11.74
2018-05-17T23:11:01.531Z,11.75
2018-05-17T23:16:04.046Z,11.66
2018-05-17T23:21:06.539Z,11.60
2018-05-17T23:26:09.032Z,11.53
2018-05-17T23:31:11.568Z,11.44
2018-05-17T23:36:14.155Z,11.44
2018-05-17T23:41:28.756Z,11.36
2018-05-17T23:46:31.316Z,11.34
2018-05-17T23:51:33.847Z,11.32
2018-05-17T23:56:36.349Z,11.23
